Time;durP1;ratioP1;P1;durP2;ratioP2;P2;SDS_P1;SDS_P2;PMS_P1;PMS_P2;Temp;Humidity;BMP_temperature;BMP_pressure;BME280_temperature;BME280_humidity;BME280_pressure;Samples;Min_cycle;Max_cycle;Signal;HPM_P1;HPM_P2
2021/03/11 00:00:16;;;;;;;1.70;0.40;;;8.20;88.30;;;;;;5076101;28;20254;-68
2021/03/11 00:02:42;;;;;;;1.70;0.30;;;8.30;88.40;;;;;;5076175;28;20257;-71
2021/03/11 00:05:13;;;;;;;1.70;0.30;;;8.30;87.70;;;;;;5075468;28;20434;-70
2021/03/11 00:07:40;;;;;;;1.90;0.60;;;8.30;87.60;;;;;;5093628;28;21037;-70
2021/03/11 00:10:08;;;;;;;2.58;2.08;;;8.40;86.10;;;;;;5096384;28;20186;-69
2021/03/11 00:12:34;;;;;;;1.80;0.60;;;8.50;86.20;;;;;;5080555;28;20181;-73
2021/03/11 00:15:00;;;;;;;1.75;0.40;;;8.70;86.00;;;;;;5075607;28;20200;-70
2021/03/11 00:17:26;;;;;;;1.80;0.40;;;8.80;85.50;;;;;;5075677;28;20192;-71
2021/03/11 00:19:52;;;;;;;2.77;2.10;;;8.80;85.40;;;;;;5074853;28;20279;-72
2021/03/11 00:22:17;;;;;;;1.77;0.30;;;8.90;85.10;;;;;;5075505;28;20421;-72
2021/03/11 00:24:43;;;;;;;1.73;0.30;;;9.00;85.40;;;;;;5075504;28;20633;-71
2021/03/11 00:27:08;;;;;;;1.77;0.40;;;9.00;85.40;;;;;;5074247;28;20180;-70
2021/03/11 00:29:34;;;;;;;3.60;1.33;;;9.00;85.40;;;;;;5075913;28;20201;-68
2021/03/11 00:32:00;;;;;;;3.07;2.13;;;9.00;85.20;;;;;;5075366;28;20261;-70
2021/03/11 00:34:26;;;;;;;1.80;0.30;;;9.00;85.40;;;;;;5075320;28;20658;-72
2021/03/11 00:36:52;;;;;;;2.90;1.20;;;9.00;85.40;;;;;;5075447;28;20192;-70
2021/03/11 00:39:18;;;;;;;1.80;0.30;;;9.10;85.40;;;;;;5076034;28;20452;-70
2021/03/11 00:41:47;;;;;;;1.90;0.43;;;9.00;85.30;;;;;;5075118;28;20170;-71
2021/03/11 00:44:12;;;;;;;2.05;1.05;;;9.00;85.40;;;;;;5074005;28;20197;-70
2021/03/11 00:46:38;;;;;;;2.00;1.00;;;9.00;85.70;;;;;;5075191;28;20226;-70
2021/03/11 00:49:03;;;;;;;2.00;0.60;;;9.00;86.10;;;;;;5075327;28;20178;-70
2021/03/11 00:51:29;;;;;;;1.80;0.30;;;9.00;86.20;;;;;;5075053;28;20183;-70
2021/03/11 00:53:55;;;;;;;3.23;1.07;;;9.00;86.10;;;;;;5073172;28;20540;-69
2021/03/11 00:56:20;;;;;;;2.00;0.90;;;9.00;86.30;;;;;;5074226;28;20218;-70
2021/03/11 00:58:46;;;;;;;2.10;0.77;;;9.00;86.30;;;;;;5074532;28;20666;-69
2021/03/11 01:01:12;;;;;;;2.37;1.63;;;9.00;86.30;;;;;;5075702;28;20176;-70
2021/03/11 01:03:37;;;;;;;1.90;0.50;;;9.00;86.50;;;;;;5075544;28;20214;-70
2021/03/11 01:06:03;;;;;;;1.83;0.40;;;9.10;85.80;;;;;;5074874;28;20201;-71
2021/03/11 01:08:29;;;;;;;1.80;0.30;;;9.10;85.70;;;;;;5074643;28;20176;-70
2021/03/11 01:10:54;;;;;;;1.80;0.40;;;9.10;85.80;;;;;;5073850;28;20188;-71
2021/03/11 01:13:20;;;;;;;2.10;0.77;;;9.10;86.30;;;;;;5075031;28;20189;-70
2021/03/11 01:15:46;;;;;;;1.80;0.27;;;9.10;86.00;;;;;;5074564;28;20653;-70
2021/03/11 01:18:13;;;;;;;4.63;2.30;;;9.10;86.30;;;;;;5074397;28;20507;-71
2021/03/11 01:20:39;;;;;;;2.00;0.57;;;9.20;85.90;;;;;;5074692;28;20469;-70
2021/03/11 01:23:05;;;;;;;1.80;0.30;;;9.10;85.80;;;;;;5074979;28;20172;-70
2021/03/11 01:25:30;;;;;;;1.83;0.30;;;9.20;85.80;;;;;;5074353;28;20429;-70
2021/03/11 01:27:56;;;;;;;1.90;0.40;;;9.20;85.90;;;;;;5072995;28;20540;-69
2021/03/11 01:30:23;;;;;;;1.90;0.30;;;9.20;86.40;;;;;;5074728;28;20637;-70
2021/03/11 01:32:49;;;;;;;2.75;1.98;;;9.20;86.50;;;;;;5074608;28;20198;-70
2021/03/11 01:35:15;;;;;;;2.00;0.80;;;9.20;87.70;;;;;;5074156;28;20233;-71
2021/03/11 01:37:41;;;;;;;2.53;0.83;;;9.20;87.50;;;;;;5073929;28;20425;-72
2021/03/11 01:40:08;;;;;;;2.10;0.68;;;9.20;87.00;;;;;;5073983;28;20809;-71
2021/03/11 01:42:34;;;;;;;2.00;0.68;;;9.20;86.80;;;;;;5074480;28;20167;-70
2021/03/11 01:44:59;;;;;;;1.80;0.30;;;9.20;86.80;;;;;;5073998;28;20243;-71
2021/03/11 01:47:26;;;;;;;2.10;0.83;;;9.20;87.30;;;;;;5073896;28;20179;-70
2021/03/11 01:49:52;;;;;;;2.20;0.93;;;9.20;87.50;;;;;;5074402;28;20183;-70
2021/03/11 01:52:17;;;;;;;1.80;0.40;;;9.20;87.50;;;;;;5074105;28;20183;-69
2021/03/11 01:54:45;;;;;;;1.80;0.40;;;9.20;88.10;;;;;;5073750;28;20173;-71
2021/03/11 01:57:11;;;;;;;2.20;0.60;;;9.20;88.60;;;;;;5073609;28;20425;-71
2021/03/11 01:59:37;;;;;;;1.80;0.40;;;9.20;89.80;;;;;;5073911;28;20688;-68
2021/03/11 02:02:03;;;;;;;2.43;1.23;;;9.20;89.10;;;;;;5073827;28;20173;-70
2021/03/11 02:04:29;;;;;;;1.80;0.40;;;9.20;89.50;;;;;;5072383;28;20498;-69
2021/03/11 02:06:54;;;;;;;2.07;0.93;;;9.20;89.50;;;;;;5073828;28;20219;-70
2021/03/11 02:09:20;;;;;;;1.90;0.50;;;9.20;89.90;;;;;;5073904;28;20568;-69
2021/03/11 02:11:57;;;;;;;2.40;0.83;;;9.30;90.10;;;;;;5073581;28;20164;-68
2021/03/11 02:14:47;;;;;;;1.77;0.40;;;9.30;90.30;;;;;;5053801;28;20400;-70
2021/03/11 02:17:17;;;;;;;1.70;0.40;;;9.30;90.70;;;;;;5072993;28;20263;-71
2021/03/11 02:20:02;;;;;;;1.70;0.40;;;9.30;91.10;;;;;;5073697;28;20196;-71
2021/03/11 02:22:38;;;;;;;1.70;0.30;;;9.30;91.00;;;;;;5073335;28;20177;-71
2021/03/11 02:25:33;;;;;;;1.70;0.30;;;9.30;91.10;;;;;;5073335;28;20649;-72
2021/03/11 02:28:34;;;;;;;1.70;0.30;;;9.20;91.20;;;;;;5073809;28;20255;-71
2021/03/11 02:31:00;;;;;;;1.70;0.40;;;9.20;91.30;;;;;;5044513;28;20588;-71
2021/03/11 02:33:28;;;;;;;1.70;0.30;;;9.20;91.30;;;;;;5073270;28;20259;-72
2021/03/11 02:35:55;;;;;;;1.70;0.30;;;9.20;91.00;;;;;;5073163;28;20198;-72
2021/03/11 02:38:22;;;;;;;1.80;0.47;;;9.20;91.20;;;;;;5073292;28;20179;-71
2021/03/11 02:40:51;;;;;;;1.70;0.30;;;9.20;91.10;;;;;;5073399;28;20210;-71
2021/03/11 02:43:17;;;;;;;1.70;0.40;;;9.20;90.90;;;;;;5067573;28;20636;-72
2021/03/11 02:45:44;;;;;;;1.70;0.30;;;9.20;90.80;;;;;;5073037;28;20180;-71
2021/03/11 02:48:12;;;;;;;1.73;0.45;;;9.20;90.80;;;;;;5073171;28;20172;-72
2021/03/11 02:50:39;;;;;;;1.70;0.30;;;9.30;90.90;;;;;;5073546;28;20179;-72
2021/03/11 02:53:09;;;;;;;1.70;0.30;;;9.30;90.60;;;;;;5072598;28;20184;-71
2021/03/11 02:55:36;;;;;;;1.70;0.30;;;9.30;90.50;;;;;;5073131;28;20192;-72
2021/03/11 02:58:03;;;;;;;2.08;1.20;;;9.30;90.50;;;;;;5071905;28;20187;-72
2021/03/11 03:00:30;;;;;;;1.80;0.40;;;9.30;90.30;;;;;;5073102;28;20195;-71
2021/03/11 03:02:57;;;;;;;1.80;0.40;;;9.30;90.10;;;;;;5072856;28;20175;-71
2021/03/11 03:05:28;;;;;;;1.70;0.40;;;9.30;90.00;;;;;;5072967;28;20595;-70
2021/03/11 03:07:54;;;;;;;1.80;0.50;;;9.30;90.00;;;;;;5073034;28;20170;-72
2021/03/11 03:10:28;;;;;;;1.90;0.52;;;9.30;89.90;;;;;;5071981;28;20571;-72
2021/03/11 03:12:56;;;;;;;1.75;0.40;;;9.20;89.70;;;;;;5073349;28;20601;-71
2021/03/11 03:15:23;;;;;;;2.00;0.80;;;9.20;89.90;;;;;;5073617;28;20195;-72
2021/03/11 03:17:50;;;;;;;1.77;0.38;;;9.20;90.00;;;;;;5078001;28;20183;-70
2021/03/11 03:20:20;;;;;;;2.30;0.80;;;9.10;89.70;;;;;;5077557;28;20247;-70
2021/03/11 03:22:48;;;;;;;1.73;0.30;;;9.20;89.50;;;;;;5077329;28;20205;-70
2021/03/11 03:25:15;;;;;;;1.70;0.30;;;9.20;88.80;;;;;;5077764;28;20233;-70
2021/03/11 03:27:41;;;;;;;1.80;0.40;;;9.10;88.90;;;;;;5078166;28;20291;-69
2021/03/11 03:30:08;;;;;;;1.83;0.57;;;9.10;89.40;;;;;;5079355;28;20169;-70
2021/03/11 03:32:35;;;;;;;1.73;0.30;;;9.20;88.90;;;;;;5081822;28;20208;-70
2021/03/11 03:35:01;;;;;;;1.70;0.30;;;9.10;88.50;;;;;;5083215;28;20192;-70
2021/03/11 03:37:27;;;;;;;2.13;0.98;;;9.10;88.70;;;;;;5084460;28;20184;-70
2021/03/11 03:39:53;;;;;;;1.90;1.00;;;9.10;89.20;;;;;;5079977;28;20201;-70
2021/03/11 03:42:19;;;;;;;1.70;0.30;;;9.10;89.90;;;;;;5076056;28;20266;-71
2021/03/11 03:44:47;;;;;;;1.70;0.30;;;9.10;90.00;;;;;;5076698;28;20231;-70
2021/03/11 03:47:15;;;;;;;2.00;0.85;;;9.10;90.30;;;;;;5076643;28;20251;-72
2021/03/11 03:49:41;;;;;;;1.70;0.30;;;9.10;90.10;;;;;;5076677;28;20175;-71
2021/03/11 03:52:09;;;;;;;1.80;0.55;;;9.20;89.70;;;;;;5076326;28;20184;-72
2021/03/11 03:54:40;;;;;;;2.50;1.10;;;9.20;90.00;;;;;;5075923;28;20186;-71
2021/03/11 03:57:21;;;;;;;1.75;0.50;;;9.20;90.10;;;;;;5076291;28;20285;-71
2021/03/11 03:59:52;;;;;;;1.70;0.40;;;9.30;90.50;;;;;;5076302;28;20277;-71
2021/03/11 04:02:20;;;;;;;1.90;1.05;;;9.30;90.40;;;;;;5075972;28;20177;-71
2021/03/11 04:04:48;;;;;;;1.70;0.35;;;9.30;90.30;;;;;;5075744;28;20165;-70
2021/03/11 04:07:19;;;;;;;1.70;0.32;;;9.40;90.40;;;;;;5075952;28;20602;-70
2021/03/11 04:09:46;;;;;;;1.80;0.73;;;9.40;90.10;;;;;;5076426;28;20255;-70
2021/03/11 04:12:15;;;;;;;1.77;0.40;;;9.50;90.20;;;;;;5075627;28;20180;-71
2021/03/11 04:14:42;;;;;;;1.80;0.50;;;9.60;90.40;;;;;;5092530;28;20172;-70
2021/03/11 04:17:10;;;;;;;1.70;0.32;;;9.60;90.40;;;;;;5090308;28;20534;-70
2021/03/11 04:19:38;;;;;;;1.70;0.32;;;9.70;90.70;;;;;;5074237;28;20196;-70
2021/03/11 04:22:04;;;;;;;1.80;0.50;;;9.70;90.70;;;;;;5076053;28;20713;-69
2021/03/11 04:24:32;;;;;;;1.80;0.43;;;9.80;90.90;;;;;;5075367;28;20200;-69
2021/03/11 04:27:00;;;;;;;1.70;0.30;;;9.80;91.00;;;;;;5075534;28;20512;-72
2021/03/11 04:29:27;;;;;;;1.70;0.30;;;9.80;91.00;;;;;;5075619;28;20180;-69
2021/03/11 04:31:52;;;;;;;1.80;0.60;;;9.80;91.10;;;;;;5075393;28;20179;-70
2021/03/11 04:34:19;;;;;;;1.80;0.60;;;9.80;91.40;;;;;;5074848;28;20745;-70
2021/03/11 04:36:45;;;;;;;1.70;0.30;;;9.80;91.50;;;;;;5075665;28;20195;-71
2021/03/11 04:39:11;;;;;;;1.80;0.53;;;9.80;91.70;;;;;;5075356;28;20196;-72
2021/03/11 04:41:36;;;;;;;1.70;0.40;;;9.80;91.70;;;;;;5075784;28;20486;-71
2021/03/11 04:44:03;;;;;;;1.67;0.30;;;9.90;91.80;;;;;;5073877;28;20207;-70
2021/03/11 04:46:29;;;;;;;2.35;1.27;;;10.00;91.40;;;;;;5075220;28;20474;-70
2021/03/11 04:48:59;;;;;;;2.83;0.70;;;9.90;92.10;;;;;;5075352;28;20173;-70
2021/03/11 04:51:25;;;;;;;1.80;0.57;;;9.90;92.40;;;;;;5075488;28;20244;-70
2021/03/11 04:53:54;;;;;;;1.70;0.40;;;10.00;91.90;;;;;;5075237;28;20173;-71
2021/03/11 04:56:23;;;;;;;1.60;0.32;;;10.00;92.30;;;;;;5075303;28;20181;-70
2021/03/11 04:58:53;;;;;;;1.58;0.40;;;10.00;92.70;;;;;;5074960;28;20647;-70
2021/03/11 05:01:28;;;;;;;1.52;0.30;;;10.00;93.10;;;;;;5074643;28;20186;-69
2021/03/11 05:03:55;;;;;;;1.50;0.30;;;10.10;93.40;;;;;;5074609;28;20179;-69
2021/03/11 05:06:21;;;;;;;1.52;0.30;;;10.10;93.60;;;;;;5074928;28;20201;-70
2021/03/11 05:08:47;;;;;;;1.50;0.30;;;10.10;93.90;;;;;;5075154;28;20175;-71
2021/03/11 05:11:13;;;;;;;1.40;0.30;;;10.20;94.10;;;;;;5075041;28;20651;-69
2021/03/11 05:13:40;;;;;;;1.40;0.30;;;10.20;94.50;;;;;;5073830;28;20175;-69
2021/03/11 05:16:06;;;;;;;1.30;0.30;;;10.20;94.60;;;;;;5073216;28;20787;-69
2021/03/11 05:18:32;;;;;;;1.33;0.37;;;10.30;94.70;;;;;;5075142;28;20255;-70
2021/03/11 05:20:58;;;;;;;1.40;0.40;;;10.40;94.80;;;;;;5073407;28;20296;-70
2021/03/11 05:23:23;;;;;;;1.30;0.30;;;10.40;94.80;;;;;;5074701;28;20774;-68
2021/03/11 05:25:52;;;;;;;1.30;0.30;;;10.50;94.90;;;;;;5073159;28;20781;-71
2021/03/11 05:28:18;;;;;;;1.65;0.77;;;10.50;94.90;;;;;;5068733;28;20187;-68
2021/03/11 05:30:43;;;;;;;1.30;0.30;;;10.50;94.90;;;;;;5074361;28;20489;-69
2021/03/11 05:33:09;;;;;;;1.30;0.40;;;10.50;94.90;;;;;;5074485;28;20172;-70
2021/03/11 05:35:35;;;;;;;1.20;0.30;;;10.60;95.00;;;;;;5074215;28;20222;-70
2021/03/11 05:38:02;;;;;;;1.20;0.30;;;10.60;94.90;;;;;;5074233;28;20172;-70
2021/03/11 05:40:28;;;;;;;1.20;0.30;;;10.60;94.90;;;;;;5073321;28;20250;-70
2021/03/11 05:42:57;;;;;;;1.40;0.50;;;10.60;95.00;;;;;;5073873;28;20180;-69
2021/03/11 05:45:25;;;;;;;1.20;0.30;;;10.60;95.10;;;;;;5073083;28;20192;-69
2021/03/11 05:47:55;;;;;;;1.20;0.40;;;10.60;95.10;;;;;;5072877;28;20196;-68
2021/03/11 05:50:21;;;;;;;1.20;0.30;;;10.60;95.20;;;;;;5072765;28;20176;-68
2021/03/11 05:52:47;;;;;;;1.17;0.30;;;10.60;95.30;;;;;;5073035;28;20180;-69
2021/03/11 05:55:16;;;;;;;1.20;0.30;;;10.60;95.40;;;;;;5072356;28;20196;-69
2021/03/11 05:57:44;;;;;;;1.10;0.30;;;10.60;95.40;;;;;;5073391;28;20173;-70
2021/03/11 06:00:16;;;;;;;1.10;0.38;;;10.60;95.50;;;;;;5073147;28;20205;-66
2021/03/11 06:02:43;;;;;;;1.10;0.30;;;10.60;95.60;;;;;;5074507;28;20180;-69
2021/03/11 06:05:16;;;;;;;1.10;0.30;;;10.60;96.00;;;;;;5073482;28;20185;-69
2021/03/11 06:07:46;;;;;;;1.10;0.52;;;10.60;95.70;;;;;;5076138;28;20168;-67
2021/03/11 06:10:15;;;;;;;1.10;0.50;;;10.60;95.80;;;;;;5079101;28;20181;-69
2021/03/11 06:12:43;;;;;;;1.00;0.30;;;10.60;95.80;;;;;;5074975;28;20184;-70
2021/03/11 06:15:14;;;;;;;1.00;0.30;;;10.60;96.00;;;;;;5073290;28;20196;-70
2021/03/11 06:17:40;;;;;;;1.00;0.30;;;10.60;96.00;;;;;;5073526;28;20176;-71
2021/03/11 06:20:10;;;;;;;1.00;0.30;;;10.60;95.90;;;;;;5072158;28;20608;-71
2021/03/11 06:22:37;;;;;;;1.00;0.43;;;10.60;96.10;;;;;;5068252;28;20234;-70
2021/03/11 06:25:07;;;;;;;1.00;0.30;;;10.70;96.00;;;;;;5073186;28;20189;-70
2021/03/11 06:27:33;;;;;;;1.00;0.35;;;10.70;96.10;;;;;;5072020;28;20593;-70
2021/03/11 06:29:59;;;;;;;1.00;0.30;;;10.70;96.00;;;;;;5073256;28;20219;-72
2021/03/11 06:32:25;;;;;;;0.90;0.40;;;10.70;96.00;;;;;;5073390;28;20811;-70
2021/03/11 06:34:51;;;;;;;1.00;0.30;;;10.70;96.00;;;;;;5073001;28;20242;-70
2021/03/11 06:37:36;;;;;;;1.00;0.30;;;10.70;96.00;;;;;;5073291;28;20203;-72
2021/03/11 06:40:19;;;;;;;0.90;0.30;;;10.70;96.10;;;;;;5073248;28;20613;-70
2021/03/11 06:42:46;;;;;;;1.00;0.65;;;10.70;96.20;;;;;;5073311;28;20681;-68
2021/03/11 06:45:30;;;;;;;0.80;0.30;;;10.80;96.40;;;;;;5072945;28;20658;-69
2021/03/11 06:48:19;;;;;;;0.88;0.40;;;10.80;96.40;;;;;;5073009;28;20195;-71
2021/03/11 06:50:44;;;;;;;0.88;0.40;;;10.70;96.40;;;;;;5072651;28;20696;-69
2021/03/11 06:53:10;;;;;;;0.80;0.40;;;10.70;96.30;;;;;;5073255;28;20176;-67
2021/03/11 06:55:36;;;;;;;0.80;0.37;;;10.80;96.30;;;;;;5072480;28;20192;-70
2021/03/11 06:58:18;;;;;;;0.90;0.77;;;10.80;96.30;;;;;;5073316;28;20180;-69
2021/03/11 07:00:47;;;;;;;0.80;0.30;;;10.90;96.30;;;;;;5071449;28;20817;-69
2021/03/11 07:03:13;;;;;;;0.80;0.30;;;10.90;95.90;;;;;;5073202;28;20176;-70
2021/03/11 07:05:44;;;;;;;0.80;0.30;;;11.00;96.00;;;;;;5072484;28;20192;-70
2021/03/11 07:08:16;;;;;;;1.77;1.67;;;11.00;95.70;;;;;;5072824;28;20259;-68
2021/03/11 07:10:44;;;;;;;0.80;0.40;;;11.10;95.70;;;;;;5071614;28;20222;-69
2021/03/11 07:13:10;;;;;;;0.80;0.30;;;11.20;95.60;;;;;;5071696;28;20172;-68
2021/03/11 07:15:37;;;;;;;0.80;0.40;;;11.20;95.60;;;;;;5072858;28;20192;-68
2021/03/11 07:18:07;;;;;;;0.90;0.50;;;11.20;95.40;;;;;;5071199;28;20176;-69
2021/03/11 07:20:34;;;;;;;0.80;0.30;;;11.20;95.50;;;;;;5072848;28;20215;-68
2021/03/11 07:23:14;;;;;;;0.80;0.40;;;11.30;95.40;;;;;;5053129;28;20175;-71
2021/03/11 07:25:43;;;;;;;0.80;0.30;;;11.40;95.40;;;;;;5069496;28;20554;-71
2021/03/11 07:28:25;;;;;;;0.90;0.38;;;11.40;95.40;;;;;;5073022;28;20161;-72
2021/03/11 07:30:56;;;;;;;0.90;0.40;;;11.40;95.30;;;;;;5072792;28;20194;-70
2021/03/11 07:33:24;;;;;;;0.90;0.30;;;11.50;95.20;;;;;;5052941;28;20177;-69
2021/03/11 07:35:52;;;;;;;0.90;0.35;;;11.50;95.20;;;;;;5051871;28;20204;-69
2021/03/11 07:38:20;;;;;;;1.10;0.77;;;11.60;95.20;;;;;;5071534;28;20226;-69
2021/03/11 07:40:54;;;;;;;0.90;0.30;;;11.60;95.20;;;;;;5072600;28;20250;-69
2021/03/11 07:43:21;;;;;;;0.90;0.40;;;11.70;95.30;;;;;;5072913;28;20176;-69
2021/03/11 07:45:47;;;;;;;0.90;0.30;;;11.70;95.40;;;;;;5071221;28;20268;-69
2021/03/11 07:48:13;;;;;;;1.00;0.38;;;11.80;95.30;;;;;;5071221;28;20185;-67
2021/03/11 07:50:49;;;;;;;1.00;0.40;;;11.90;95.30;;;;;;5072257;28;20627;-66
2021/03/11 07:53:15;;;;;;;0.98;0.30;;;11.90;95.20;;;;;;5072646;28;20164;-65
2021/03/11 07:55:41;;;;;;;1.00;0.30;;;12.00;95.20;;;;;;5071971;28;20199;-65
2021/03/11 07:58:10;;;;;;;1.00;0.30;;;12.10;95.10;;;;;;5072614;28;20267;-66
2021/03/11 08:00:36;;;;;;;1.00;0.30;;;12.20;95.20;;;;;;5071964;28;20246;-66
2021/03/11 08:03:13;;;;;;;1.02;0.30;;;12.20;95.10;;;;;;5074206;28;20208;-65
2021/03/11 08:05:39;;;;;;;1.10;0.30;;;12.30;94.90;;;;;;5057945;28;20192;-65
2021/03/11 08:08:19;;;;;;;1.10;0.30;;;12.40;94.70;;;;;;5075578;28;20227;-64
2021/03/11 08:10:58;;;;;;;1.10;0.30;;;12.50;94.60;;;;;;5076090;28;20229;-64
2021/03/11 08:13:35;;;;;;;1.17;0.30;;;12.50;94.50;;;;;;5078162;28;20264;-65
2021/03/11 08:16:20;;;;;;;1.15;0.30;;;12.60;94.70;;;;;;5096197;28;20195;-64
2021/03/11 08:18:47;;;;;;;1.20;0.40;;;12.70;94.60;;;;;;5093031;28;20177;-65
2021/03/11 08:21:24;;;;;;;1.20;0.30;;;12.90;94.40;;;;;;5075220;28;20563;-65
2021/03/11 08:23:51;;;;;;;1.27;0.35;;;13.00;94.20;;;;;;5057385;28;20504;-64
2021/03/11 08:26:37;;;;;;;1.30;0.30;;;13.10;94.10;;;;;;5058072;28;20197;-64
2021/03/11 08:29:23;;;;;;;1.30;0.30;;;13.20;94.00;;;;;;5058286;28;20507;-64
2021/03/11 08:31:49;;;;;;;1.37;0.30;;;13.40;93.70;;;;;;5075936;28;20445;-65
2021/03/11 08:34:50;;;;;;;1.40;0.30;;;13.60;94.00;;;;;;5075053;28;20407;-64
2021/03/11 08:37:21;;;;;;;1.50;0.30;;;13.90;92.80;;;;;;4974871;28;21019;-64
2021/03/11 08:39:47;;;;;;;1.60;0.40;;;13.80;92.80;;;;;;5057756;28;20464;-65
2021/03/11 08:42:46;;;;;;;1.60;0.40;;;13.80;92.90;;;;;;5075758;28;20455;-64
2021/03/11 08:45:33;;;;;;;1.60;0.40;;;13.70;93.10;;;;;;5056277;28;20428;-64
2021/03/11 08:48:22;;;;;;;1.60;0.30;;;13.70;92.90;;;;;;5075220;28;20763;-64
2021/03/11 08:50:50;;;;;;;1.60;0.30;;;13.70;93.20;;;;;;5075382;28;20424;-65
2021/03/11 08:53:38;;;;;;;1.70;0.40;;;13.80;93.10;;;;;;5056663;28;20422;-64
2021/03/11 08:56:33;;;;;;;1.70;0.30;;;13.90;93.00;;;;;;5074501;28;20448;-65
2021/03/11 08:59:07;;;;;;;1.70;0.40;;;14.00;92.90;;;;;;5051475;28;20452;-67
2021/03/11 09:01:45;;;;;;;1.70;0.40;;;14.10;92.70;;;;;;5056785;28;20959;-66
2021/03/11 09:04:20;;;;;;;1.80;0.40;;;14.30;92.80;;;;;;5074708;28;20401;-65
2021/03/11 09:07:06;;;;;;;1.80;0.40;;;14.60;92.30;;;;;;5074597;28;20772;-64
2021/03/11 09:09:40;;;;;;;1.90;0.30;;;14.90;91.80;;;;;;5057206;28;20407;-65
2021/03/11 09:12:14;;;;;;;1.90;0.30;;;14.90;91.80;;;;;;5074322;28;20419;-69
2021/03/11 09:14:59;;;;;;;2.00;0.43;;;14.90;92.00;;;;;;5074212;28;20776;-68
2021/03/11 09:17:27;;;;;;;1.93;0.30;;;14.80;92.10;;;;;;5074752;28;20410;-67
2021/03/11 09:20:00;;;;;;;2.00;0.30;;;14.70;92.30;;;;;;5074542;28;20849;-67
2021/03/11 09:22:39;;;;;;;1.90;0.30;;;14.50;92.70;;;;;;5074629;28;20425;-67
2021/03/11 09:25:20;;;;;;;2.00;0.50;;;14.30;93.10;;;;;;5074270;28;20417;-70
2021/03/11 09:27:59;;;;;;;1.90;0.30;;;14.20;93.50;;;;;;5054814;28;20511;-70
2021/03/11 09:30:51;;;;;;;2.00;0.40;;;14.30;93.30;;;;;;5059748;28;20421;-71
2021/03/11 09:33:18;;;;;;;1.90;0.30;;;14.20;93.50;;;;;;5070651;28;20838;-71
2021/03/11 09:35:44;;;;;;;1.90;0.30;;;14.10;93.40;;;;;;5073898;28;20791;-70
2021/03/11 09:38:13;;;;;;;1.80;0.30;;;14.10;93.40;;;;;;5074387;28;20432;-71
2021/03/11 09:40:44;;;;;;;1.90;0.40;;;14.00;93.70;;;;;;5074015;28;20992;-69
2021/03/11 09:43:20;;;;;;;1.90;0.40;;;14.00;93.90;;;;;;5056358;28;20439;-71
2021/03/11 09:45:48;;;;;;;1.80;0.30;;;14.00;94.00;;;;;;5073377;28;20499;-71
2021/03/11 09:48:16;;;;;;;1.80;0.30;;;14.00;93.80;;;;;;5056288;28;20415;-70
2021/03/11 09:50:51;;;;;;;1.80;0.30;;;14.00;93.80;;;;;;5073916;28;20420;-70
2021/03/11 09:53:18;;;;;;;1.80;0.30;;;14.00;93.50;;;;;;5074455;28;20766;-70
2021/03/11 09:55:44;;;;;;;1.80;0.30;;;14.00;93.60;;;;;;5073517;28;20623;-69
2021/03/11 09:58:15;;;;;;;2.17;0.77;;;14.00;93.80;;;;;;5073864;28;20408;-68
2021/03/11 10:00:41;;;;;;;2.20;0.90;;;14.00;93.80;;;;;;5055294;28;20491;-69
2021/03/11 10:03:25;;;;;;;1.80;0.30;;;14.00;93.70;;;;;;5072812;28;20413;-70
2021/03/11 10:06:02;;;;;;;1.77;0.30;;;14.10;93.80;;;;;;5069992;28;20423;-72
2021/03/11 10:08:30;;;;;;;1.77;0.30;;;14.10;93.70;;;;;;5073894;28;20481;-69
2021/03/11 10:11:02;;;;;;;1.80;0.30;;;14.10;93.80;;;;;;5073510;28;20771;-67
2021/03/11 10:13:41;;;;;;;1.73;0.40;;;14.10;93.90;;;;;;5055602;28;20419;-68
2021/03/11 10:16:09;;;;;;;1.80;0.30;;;14.20;93.90;;;;;;5072488;28;20526;-68
2021/03/11 10:18:35;;;;;;;1.70;0.30;;;14.20;94.00;;;;;;5073011;28;20432;-69
2021/03/11 10:21:09;;;;;;;1.70;0.30;;;14.20;94.10;;;;;;5054920;28;20480;-68
2021/03/11 10:23:38;;;;;;;1.70;0.30;;;14.30;94.00;;;;;;5073423;28;20412;-70
2021/03/11 10:26:25;;;;;;;1.70;0.30;;;14.30;94.20;;;;;;5054333;28;21012;-69
2021/03/11 10:29:03;;;;;;;1.70;0.30;;;14.40;94.30;;;;;;5073522;28;20399;-69
2021/03/11 10:31:29;;;;;;;1.70;0.30;;;14.40;94.30;;;;;;5073215;28;20407;-68
2021/03/11 10:34:06;;;;;;;1.70;0.40;;;14.50;94.20;;;;;;5073086;28;20967;-67
2021/03/11 10:36:33;;;;;;;1.77;0.40;;;14.50;94.20;;;;;;5072871;28;20432;-69
2021/03/11 10:39:07;;;;;;;1.70;0.30;;;14.50;94.30;;;;;;5073266;28;20397;-69
2021/03/11 10:41:34;;;;;;;1.70;0.30;;;14.50;94.50;;;;;;5073146;28;20770;-69
2021/03/11 10:44:07;;;;;;;1.70;0.30;;;14.50;94.70;;;;;;5072938;28;20401;-67
2021/03/11 10:46:32;;;;;;;1.63;0.30;;;14.60;94.90;;;;;;5072664;28;20441;-67
2021/03/11 10:48:58;;;;;;;1.70;0.30;;;14.70;95.10;;;;;;5073235;28;20451;-68
2021/03/11 10:51:30;;;;;;;1.80;0.40;;;14.80;95.20;;;;;;5072656;28;20442;-66
2021/03/11 10:53:58;;;;;;;1.63;0.30;;;14.80;95.20;;;;;;5072859;28;20179;-68
2021/03/11 10:56:25;;;;;;;1.60;0.30;;;14.90;95.20;;;;;;5072918;28;20436;-67
2021/03/11 10:59:03;;;;;;;1.70;0.30;;;15.00;95.30;;;;;;5073097;28;20525;-67
2021/03/11 11:01:30;;;;;;;1.70;0.30;;;15.00;95.20;;;;;;5054768;28;20467;-65
2021/03/11 11:03:56;;;;;;;1.70;0.30;;;14.90;95.30;;;;;;5072404;28;20406;-67
2021/03/11 11:06:23;;;;;;;1.60;0.30;;;14.90;95.50;;;;;;5072654;28;20529;-65
2021/03/11 11:08:49;;;;;;;3.30;1.77;;;14.80;95.80;;;;;;5072920;28;20494;-66
2021/03/11 11:11:17;;;;;;;1.50;0.30;;;14.80;96.30;;;;;;5053196;28;20411;-67
2021/03/11 11:13:43;;;;;;;1.50;0.40;;;14.80;97.10;;;;;;5052715;28;20409;-65
2021/03/11 11:16:12;;;;;;;1.40;0.30;;;14.80;98.00;;;;;;5072245;28;20441;-67
2021/03/11 11:18:38;;;;;;;1.40;0.30;;;14.70;98.20;;;;;;5072961;28;20236;-66
2021/03/11 11:21:05;;;;;;;1.30;0.30;;;14.70;98.80;;;;;;5072732;28;20480;-67
2021/03/11 11:23:31;;;;;;;1.30;0.30;;;14.70;99.30;;;;;;5072886;28;20799;-67
2021/03/11 11:25:57;;;;;;;1.20;0.30;;;14.60;99.70;;;;;;5071960;28;20441;-67
2021/03/11 11:28:23;;;;;;;1.20;0.37;;;14.50;99.90;;;;;;5072594;28;20760;-66
2021/03/11 11:30:52;;;;;;;1.10;0.40;;;14.50;99.90;;;;;;5053891;28;20502;-67
2021/03/11 11:33:18;;;;;;;1.00;0.30;;;14.30;99.90;;;;;;5072278;28;20423;-67
2021/03/11 11:35:43;;;;;;;0.90;0.30;;;14.20;99.90;;;;;;5072107;28;20795;-66
2021/03/11 11:38:09;;;;;;;0.80;0.30;;;14.20;99.90;;;;;;5076472;28;20677;-67
2021/03/11 11:40:35;;;;;;;0.80;0.30;;;14.00;99.90;;;;;;5076915;28;20285;-67
2021/03/11 11:43:01;;;;;;;0.80;0.40;;;13.90;99.90;;;;;;5076641;28;20694;-65
2021/03/11 11:45:27;;;;;;;0.60;0.30;;;13.80;99.90;;;;;;5075765;28;20229;-66
2021/03/11 11:47:53;;;;;;;0.60;0.30;;;13.80;99.90;;;;;;5076313;28;20421;-67
2021/03/11 11:50:18;;;;;;;0.50;0.30;;;13.80;99.90;;;;;;5076245;28;20832;-66
2021/03/11 11:52:44;;;;;;;0.40;0.30;;;13.80;99.90;;;;;;5087860;28;20192;-64
2021/03/11 11:55:12;;;;;;;0.50;0.40;;;13.70;99.90;;;;;;5058312;28;20630;-64
2021/03/11 11:57:41;;;;;;;0.40;0.30;;;13.70;99.90;;;;;;5076353;28;20473;-66
2021/03/11 12:00:13;;;;;;;0.40;0.40;;;13.70;99.90;;;;;;5076079;28;20467;-65
2021/03/11 12:02:39;;;;;;;4.97;1.50;;;13.70;99.90;;;;;;5070940;28;20204;-66
2021/03/11 12:05:06;;;;;;;0.40;0.40;;;13.70;99.90;;;;;;5075701;28;20444;-66
2021/03/11 12:07:31;;;;;;;0.30;0.30;;;13.80;99.90;;;;;;5076098;28;20197;-66
2021/03/11 12:09:58;;;;;;;0.30;0.30;;;13.90;99.90;;;;;;5076244;28;20911;-66
2021/03/11 12:12:25;;;;;;;0.30;0.20;;;13.90;99.90;;;;;;5076143;28;20907;-66
2021/03/11 12:14:50;;;;;;;0.30;0.30;;;14.00;99.90;;;;;;5075836;28;20415;-67
2021/03/11 12:17:16;;;;;;;0.63;0.50;;;14.10;99.90;;;;;;5075823;28;20759;-67
2021/03/11 12:19:42;;;;;;;0.30;0.30;;;14.20;99.90;;;;;;5090052;28;20212;-66
2021/03/11 12:22:07;;;;;;;0.30;0.30;;;14.30;99.90;;;;;;5075700;28;20163;-67
2021/03/11 12:24:33;;;;;;;0.30;0.20;;;14.30;99.90;;;;;;5075003;28;20247;-67
2021/03/11 12:26:59;;;;;;;0.30;0.30;;;14.40;99.90;;;;;;5075463;28;20893;-67
2021/03/11 12:29:24;;;;;;;0.30;0.20;;;14.50;99.90;;;;;;5075999;28;20295;-66
2021/03/11 12:31:50;;;;;;;0.30;0.30;;;14.50;99.90;;;;;;5075892;28;20267;-66
2021/03/11 12:34:16;;;;;;;0.30;0.30;;;14.60;99.90;;;;;;5074644;28;20181;-65
2021/03/11 12:36:42;;;;;;;0.40;0.40;;;14.70;99.90;;;;;;5075831;28;20196;-65
2021/03/11 12:39:09;;;;;;;0.40;0.40;;;14.90;99.90;;;;;;5075410;28;20417;-66
2021/03/11 12:41:35;;;;;;;0.30;0.30;;;15.10;99.90;;;;;;5075753;28;20921;-67
2021/03/11 12:44:01;;;;;;;0.40;0.20;;;15.30;99.90;;;;;;5074927;28;20418;-65
2021/03/11 12:46:27;;;;;;;0.40;0.30;;;15.40;99.90;;;;;;5075436;28;20185;-66
2021/03/11 12:48:53;;;;;;;0.40;0.30;;;15.60;99.90;;;;;;5074344;28;20435;-67
2021/03/11 12:51:20;;;;;;;0.40;0.20;;;15.60;99.90;;;;;;5075308;28;20459;-66
2021/03/11 12:53:46;;;;;;;0.50;0.30;;;15.60;99.90;;;;;;5075318;28;20203;-66
2021/03/11 12:56:13;;;;;;;0.50;0.30;;;15.70;99.90;;;;;;5075301;28;20445;-68
2021/03/11 12:58:40;;;;;;;0.60;0.30;;;15.70;99.90;;;;;;5075081;28;20453;-66
2021/03/11 13:01:06;;;;;;;0.60;0.30;;;15.90;99.90;;;;;;5075215;28;20461;-66